createdAt,value
2017-01-29T00:00:20.400Z,0
2017-01-29T00:00:45.993Z,0
2017-01-29T00:01:11.580Z,0
2017-01-29T05:00:53.355Z,0
2017-01-29T05:01:18.974Z,0
2017-01-29T05:01:44.710Z,0
2017-01-29T05:02:10.272Z,0
2017-01-29T05:02:35.860Z,0
2017-01-29T05:03:49.270Z,0
2017-01-29T05:04:14.847Z,0
2017-01-29T05:04:40.429Z,0
2017-01-29T05:05:06.041Z,0
2017-01-29T05:05:31.693Z,0
2017-01-29T05:05:57.252Z,0
2017-01-29T05:06:22.883Z,0
2017-01-29T05:06:48.506Z,0
2017-01-29T05:07:14.122Z,0
2017-01-29T05:07:39.709Z,0
2017-01-29T05:08:05.281Z,0
2017-01-29T05:08:31.014Z,0
2017-01-29T05:08:56.883Z,0
2017-01-29T05:09:22.440Z,0
2017-01-29T05:09:48.088Z,0
2017-01-29T05:10:13.752Z,0
2017-01-29T05:10:39.322Z,0
2017-01-29T05:11:04.883Z,0
2017-01-29T05:11:30.429Z,0
2017-01-29T05:11:56.149Z,0
2017-01-29T05:12:21.731Z,0
2017-01-29T05:12:47.290Z,0
2017-01-29T05:13:12.974Z,0
2017-01-29T05:13:38.672Z,0
2017-01-29T05:14:04.360Z,0
2017-01-29T05:14:30.011Z,0
2017-01-29T05:14:55.643Z,0
2017-01-29T05:15:21.170Z,0
2017-01-29T05:15:46.827Z,0
2017-01-29T05:16:12.386Z,0
2017-01-29T05:16:38.084Z,0
2017-01-29T05:17:03.737Z,0
2017-01-29T05:17:29.520Z,0
2017-01-29T05:17:55.261Z,0
2017-01-29T05:18:20.829Z,0
2017-01-29T05:18:46.423Z,0
2017-01-29T05:19:12.170Z,0
2017-01-29T05:19:37.734Z,0
2017-01-29T05:20:03.308Z,0
2017-01-29T05:20:28.890Z,0
2017-01-29T05:20:54.503Z,0
2017-01-29T05:21:20.158Z,0
2017-01-29T05:21:45.773Z,0
2017-01-29T05:22:11.342Z,0
2017-01-29T05:22:36.916Z,0
2017-01-29T05:23:02.472Z,0
2017-01-29T05:23:28.116Z,0
2017-01-29T05:23:53.671Z,0
2017-01-29T05:24:20.236Z,0
2017-01-29T05:24:45.839Z,0
2017-01-29T05:25:11.402Z,0
2017-01-29T05:25:36.973Z,0
2017-01-29T05:26:02.531Z,0
2017-01-29T05:26:28.137Z,0
2017-01-29T05:26:53.672Z,0
2017-01-29T05:27:19.235Z,0
2017-01-29T05:27:44.923Z,0
2017-01-29T05:28:10.485Z,0
2017-01-29T05:28:36.071Z,0
2017-01-29T05:29:01.630Z,0
2017-01-29T05:29:27.287Z,0
2017-01-29T05:29:52.932Z,0
2017-01-29T05:30:18.527Z,0
2017-01-29T05:30:44.083Z,0
2017-01-29T05:31:09.658Z,0
2017-01-29T05:31:35.374Z,0
2017-01-29T05:32:01.055Z,0
2017-01-29T05:32:26.627Z,0
2017-01-29T05:32:52.351Z,0
2017-01-29T05:33:18.041Z,0
2017-01-29T05:33:43.607Z,0
2017-01-29T05:34:09.263Z,0
2017-01-29T05:34:34.843Z,0
2017-01-29T05:35:00.510Z,0
2017-01-29T05:35:26.161Z,0
2017-01-29T05:35:51.726Z,0
2017-01-29T05:36:17.361Z,0
2017-01-29T05:36:42.930Z,0
2017-01-29T05:37:08.554Z,0
2017-01-29T05:37:34.466Z,0
2017-01-29T05:38:00.152Z,0
2017-01-29T05:38:25.793Z,0
2017-01-29T05:38:51.563Z,0
2017-01-29T05:39:17.170Z,0
2017-01-29T05:39:42.739Z,0
2017-01-29T05:40:08.363Z,0
2017-01-29T05:40:33.945Z,0
2017-01-29T05:40:59.567Z,0
2017-01-29T05:41:25.198Z,0
2017-01-29T05:41:50.767Z,0
2017-01-29T05:42:16.494Z,0
2017-01-29T05:42:42.125Z,0
2017-01-29T05:43:07.759Z,0
2017-01-29T05:43:33.400Z,0
2017-01-29T05:43:58.957Z,0
2017-01-29T05:44:24.614Z,0
2017-01-29T05:44:50.284Z,0
2017-01-29T05:45:15.845Z,0
2017-01-29T05:45:41.447Z,0
2017-01-29T05:46:07.012Z,0
2017-01-29T05:46:32.700Z,0
2017-01-29T05:46:58.384Z,0
2017-01-29T05:47:23.963Z,0
2017-01-29T05:47:49.600Z,0
2017-01-29T05:48:15.243Z,0
2017-01-29T05:48:40.824Z,0
2017-01-29T05:49:06.485Z,0
2017-01-29T05:49:32.049Z,0
2017-01-29T05:49:58.810Z,0
2017-01-29T05:50:24.484Z,0
2017-01-29T05:50:50.043Z,0
2017-01-29T05:51:15.630Z,0
2017-01-29T05:51:41.303Z,0
2017-01-29T05:52:06.867Z,0
2017-01-29T05:52:33.021Z,0
2017-01-29T05:52:58.604Z,0
2017-01-29T05:53:24.282Z,0
2017-01-29T05:53:49.842Z,0
2017-01-29T05:54:15.422Z,0
2017-01-29T05:54:40.980Z,0
2017-01-29T05:55:06.554Z,0
2017-01-29T05:55:32.112Z,0
2017-01-29T05:55:57.751Z,0
2017-01-29T05:56:23.618Z,0
2017-01-29T05:56:49.317Z,0
2017-01-29T05:57:14.824Z,0
2017-01-29T05:57:40.458Z,0
2017-01-29T05:58:06.032Z,0
2017-01-29T05:58:31.638Z,0
2017-01-29T05:58:57.181Z,0
2017-01-29T05:59:22.752Z,0
2017-01-29T05:59:48.412Z,0
2017-01-29T06:00:13.969Z,0
2017-01-29T06:00:39.530Z,0
2017-01-29T06:01:05.185Z,0
2017-01-29T06:01:30.794Z,0
2017-01-29T06:01:56.429Z,0
2017-01-29T06:02:21.991Z,0
2017-01-29T06:02:47.794Z,0
2017-01-29T06:03:13.433Z,0
2017-01-29T06:03:39.055Z,0
2017-01-29T06:04:04.681Z,0
2017-01-29T06:04:30.256Z,0
2017-01-29T06:04:55.880Z,0
2017-01-29T06:05:21.432Z,0
2017-01-29T06:05:47.049Z,0
2017-01-29T06:06:12.756Z,0
2017-01-29T06:06:38.310Z,0
2017-01-29T06:07:03.979Z,0
2017-01-29T06:07:30.349Z,0
2017-01-29T06:07:56.765Z,0
2017-01-29T06:08:22.352Z,0
2017-01-29T06:08:47.996Z,0
2017-01-29T06:09:13.674Z,0
2017-01-29T06:09:39.242Z,0
2017-01-29T06:10:04.938Z,0
2017-01-29T06:10:30.583Z,0
2017-01-29T06:10:56.164Z,0
2017-01-29T06:11:21.837Z,0
2017-01-29T06:11:47.414Z,0
2017-01-29T06:12:12.961Z,0
2017-01-29T06:12:38.577Z,0
2017-01-29T06:13:04.239Z,0
2017-01-29T06:13:29.913Z,0
2017-01-29T06:13:55.557Z,0
2017-01-29T06:14:21.078Z,0
2017-01-29T06:14:46.800Z,0
2017-01-29T06:15:12.355Z,0
2017-01-29T06:15:37.984Z,0
2017-01-29T06:16:03.688Z,0
2017-01-29T06:16:29.294Z,0
2017-01-29T06:16:54.948Z,0
2017-01-29T06:17:20.609Z,0
2017-01-29T06:17:46.148Z,0
2017-01-29T06:18:11.790Z,0
2017-01-29T06:18:37.374Z,0
2017-01-29T06:19:02.916Z,0
2017-01-29T06:19:28.498Z,0
2017-01-29T06:19:54.165Z,0
2017-01-29T06:20:19.785Z,0
2017-01-29T06:20:45.356Z,0
2017-01-29T06:21:11.033Z,0
2017-01-29T06:21:36.680Z,0
2017-01-29T06:22:02.235Z,0
2017-01-29T06:22:28.005Z,0
2017-01-29T06:22:53.577Z,0
2017-01-29T06:23:19.244Z,0
2017-01-29T06:23:45.359Z,0
2017-01-29T06:24:11.042Z,0
2017-01-29T06:24:36.631Z,0
2017-01-29T06:25:02.277Z,0
2017-01-29T06:25:27.939Z,0
2017-01-29T06:25:53.493Z,0
2017-01-29T06:26:19.124Z,0
2017-01-29T06:26:44.754Z,0
2017-01-29T06:27:10.325Z,0
2017-01-29T06:27:35.944Z,0
2017-01-29T06:28:01.518Z,0
2017-01-29T06:28:27.193Z,0
2017-01-29T06:28:52.851Z,0
2017-01-29T06:29:18.390Z,0
2017-01-29T06:29:44.069Z,0
2017-01-29T06:30:09.710Z,0
2017-01-29T06:30:35.342Z,0
2017-01-29T06:31:01.594Z,0
2017-01-29T06:31:27.228Z,0
2017-01-29T06:31:52.862Z,0
2017-01-29T06:32:18.510Z,0
2017-01-29T06:32:44.179Z,0
2017-01-29T06:33:09.742Z,0
2017-01-29T06:33:35.395Z,0
2017-01-29T06:34:01.030Z,0
2017-01-29T06:34:26.590Z,0
2017-01-29T06:34:52.244Z,0
2017-01-29T06:35:17.790Z,0
2017-01-29T06:35:43.417Z,0
2017-01-29T06:36:09.909Z,0
2017-01-29T06:36:35.483Z,0
2017-01-29T06:37:01.130Z,0
2017-01-29T06:37:26.700Z,0
2017-01-29T06:37:52.318Z,0
2017-01-29T06:38:17.942Z,0
2017-01-29T06:38:43.553Z,0
2017-01-29T06:39:09.101Z,0
2017-01-29T06:39:34.662Z,0
2017-01-29T06:40:00.457Z,0
2017-01-29T06:40:26.112Z,0
2017-01-29T06:40:51.667Z,0
2017-01-29T06:41:17.246Z,0
2017-01-29T06:41:42.810Z,0
2017-01-29T06:42:08.411Z,0
2017-01-29T06:42:34.021Z,0
2017-01-29T06:42:59.724Z,0
2017-01-29T06:43:25.472Z,0
2017-01-29T06:43:51.154Z,0
2017-01-29T06:44:16.713Z,0
2017-01-29T06:44:42.320Z,0
2017-01-29T06:45:08.094Z,0
2017-01-29T06:45:33.671Z,0
2017-01-29T06:45:59.329Z,0
2017-01-29T06:46:24.909Z,0
2017-01-29T06:46:50.500Z,0
2017-01-29T06:47:16.135Z,0
2017-01-29T06:47:41.687Z,4
2017-01-29T06:48:07.241Z,4
2017-01-29T06:48:32.807Z,4
2017-01-29T06:48:58.459Z,4
2017-01-29T06:49:24.154Z,0
2017-01-29T06:49:49.747Z,0
2017-01-29T06:50:15.460Z,0
2017-01-29T06:50:41.009Z,0
2017-01-29T06:51:06.683Z,4
2017-01-29T06:51:32.297Z,4
2017-01-29T06:51:57.859Z,4
2017-01-29T06:52:23.537Z,4
2017-01-29T06:52:49.215Z,4
2017-01-29T06:53:14.810Z,0
2017-01-29T06:53:40.518Z,4
2017-01-29T06:54:06.100Z,4
2017-01-29T06:54:31.692Z,4
2017-01-29T06:54:57.339Z,4
2017-01-29T06:55:22.914Z,8
2017-01-29T06:55:48.509Z,8
2017-01-29T06:56:14.249Z,4
2017-01-29T06:56:39.931Z,4
2017-01-29T06:57:05.521Z,8
2017-01-29T06:57:31.085Z,8
2017-01-29T06:57:56.748Z,8
2017-01-29T06:58:22.378Z,8
2017-01-29T06:58:47.939Z,8
2017-01-29T06:59:13.570Z,8
2017-01-29T06:59:39.261Z,8
2017-01-29T07:00:04.977Z,12
2017-01-29T07:01:33.124Z,12
2017-01-29T07:01:58.683Z,12
2017-01-29T07:02:24.350Z,12
2017-01-29T07:02:49.934Z,12
2017-01-29T07:03:15.498Z,16
2017-01-29T07:03:41.047Z,16
2017-01-29T07:04:06.657Z,16
2017-01-29T07:04:32.915Z,16
2017-01-29T07:04:58.605Z,16
2017-01-29T07:05:24.639Z,16
2017-01-29T07:05:50.194Z,20
2017-01-29T07:06:16.375Z,20
2017-01-29T07:06:41.938Z,20
2017-01-29T07:07:07.497Z,20
2017-01-29T07:07:33.807Z,20
2017-01-29T07:07:59.377Z,24
2017-01-29T07:08:25.562Z,24
2017-01-29T07:08:51.211Z,24
2017-01-29T07:09:16.785Z,24
2017-01-29T07:09:42.888Z,28
2017-01-29T07:10:08.525Z,28
2017-01-29T07:10:34.712Z,28
2017-01-29T07:11:00.253Z,28
2017-01-29T07:11:26.515Z,28
2017-01-29T07:11:52.103Z,32
2017-01-29T07:12:17.755Z,32
2017-01-29T07:12:43.829Z,32
2017-01-29T07:13:09.388Z,36
2017-01-29T07:13:35.617Z,36
2017-01-29T07:14:01.215Z,36
2017-01-29T07:14:26.788Z,40
2017-01-29T07:14:53.078Z,40
2017-01-29T07:15:18.635Z,40
2017-01-29T07:15:44.776Z,44
2017-01-29T07:16:10.356Z,44
2017-01-29T07:16:36.584Z,44
2017-01-29T07:17:02.167Z,44
2017-01-29T07:17:27.735Z,48
2017-01-29T07:17:53.912Z,48
2017-01-29T07:18:19.472Z,52
2017-01-29T07:18:45.719Z,52
2017-01-29T07:19:11.246Z,52
2017-01-29T07:19:36.858Z,56
2017-01-29T07:20:03.086Z,56
2017-01-29T07:20:28.668Z,56
2017-01-29T07:20:54.865Z,56
2017-01-29T07:21:20.484Z,60
2017-01-29T07:21:46.615Z,64
2017-01-29T07:22:12.235Z,64
2017-01-29T07:22:37.853Z,64
2017-01-29T07:23:03.994Z,64
2017-01-29T07:23:29.601Z,64
2017-01-29T07:23:55.764Z,68
2017-01-29T07:24:21.320Z,68
2017-01-29T07:24:46.908Z,72
2017-01-29T07:25:13.213Z,72
2017-01-29T07:25:38.785Z,72
2017-01-29T07:26:04.950Z,76
2017-01-29T07:26:30.640Z,76
2017-01-29T07:26:56.727Z,76
2017-01-29T07:27:22.293Z,80
2017-01-29T07:27:47.865Z,76
2017-01-29T07:28:14.065Z,80
2017-01-29T07:28:39.635Z,84
2017-01-29T07:29:05.848Z,84
2017-01-29T07:30:24.671Z,88
2017-01-29T07:30:50.244Z,88
2017-01-29T07:31:15.881Z,88
2017-01-29T07:31:41.476Z,92
2017-01-29T07:32:07.579Z,88
2017-01-29T07:32:33.228Z,92
2017-01-29T07:32:58.785Z,96
2017-01-29T07:33:24.355Z,96
2017-01-29T07:33:49.914Z,100
2017-01-29T07:34:15.479Z,104
2017-01-29T07:34:41.044Z,104
2017-01-29T07:35:06.634Z,104
2017-01-29T07:35:32.190Z,104
2017-01-29T07:35:57.772Z,108
2017-01-29T07:36:23.353Z,108
2017-01-29T07:36:48.954Z,108
2017-01-29T07:37:14.553Z,112
2017-01-29T07:37:40.185Z,112
2017-01-29T07:38:05.741Z,112
2017-01-29T07:38:31.305Z,116
2017-01-29T07:38:56.956Z,116
2017-01-29T07:39:22.543Z,116
2017-01-29T07:39:48.091Z,120
2017-01-29T07:40:13.751Z,120
2017-01-29T07:40:40.073Z,124
2017-01-29T07:41:05.643Z,128
2017-01-29T07:41:31.217Z,128
2017-01-29T07:41:56.795Z,132
2017-01-29T07:42:22.373Z,132
2017-01-29T07:42:47.955Z,136
2017-01-29T07:43:13.521Z,140
2017-01-29T07:43:39.079Z,140
2017-01-29T07:44:04.663Z,144
2017-01-29T07:44:30.313Z,148
2017-01-29T07:44:55.895Z,148
2017-01-29T07:45:21.444Z,152
2017-01-29T07:45:47.003Z,152
2017-01-29T07:46:12.583Z,152
2017-01-29T07:46:38.155Z,152
2017-01-29T07:47:03.704Z,156
2017-01-29T07:47:29.271Z,156
2017-01-29T07:47:54.836Z,160
2017-01-29T07:48:20.481Z,160
2017-01-29T07:48:46.043Z,164
2017-01-29T07:49:11.615Z,164
2017-01-29T07:49:37.263Z,164
2017-01-29T07:50:02.844Z,168
2017-01-29T07:50:28.426Z,168
2017-01-29T07:50:54.081Z,168
2017-01-29T07:51:19.620Z,168
2017-01-29T07:51:45.178Z,168
2017-01-29T07:52:10.818Z,172
2017-01-29T07:52:36.427Z,172
2017-01-29T07:53:01.975Z,176
2017-01-29T07:53:27.672Z,180
2017-01-29T07:53:53.235Z,180
2017-01-29T07:54:18.791Z,188
2017-01-29T07:54:44.356Z,188
2017-01-29T07:55:10.085Z,192
2017-01-29T07:55:35.664Z,196
2017-01-29T07:56:01.211Z,196
2017-01-29T07:56:26.771Z,200
2017-01-29T07:56:52.495Z,200
2017-01-29T07:57:18.071Z,200
2017-01-29T07:57:43.653Z,204
2017-01-29T07:58:09.292Z,208
2017-01-29T07:58:34.871Z,212
2017-01-29T07:59:00.448Z,212
2017-01-29T07:59:26.112Z,220
2017-01-29T07:59:51.669Z,220
2017-01-29T08:00:17.280Z,224
2017-01-29T08:00:42.933Z,232
2017-01-29T08:01:08.536Z,232
2017-01-29T08:01:34.105Z,240
2017-01-29T08:01:59.678Z,248
2017-01-29T08:02:25.323Z,256
2017-01-29T08:02:50.894Z,264
2017-01-29T08:03:16.460Z,268
2017-01-29T08:03:42.138Z,280
2017-01-29T08:04:07.728Z,288
2017-01-29T08:04:33.320Z,300
2017-01-29T08:04:58.960Z,300
2017-01-29T08:05:24.784Z,304
2017-01-29T08:05:50.414Z,308
2017-01-29T08:06:15.978Z,304
2017-01-29T08:06:41.568Z,308
2017-01-29T08:07:07.149Z,304
2017-01-29T08:07:32.705Z,296
2017-01-29T08:07:58.257Z,292
2017-01-29T08:08:23.907Z,292
2017-01-29T08:08:49.471Z,292
2017-01-29T08:09:15.051Z,288
2017-01-29T08:09:40.615Z,288
2017-01-29T08:10:06.173Z,284
2017-01-29T08:10:31.796Z,276
2017-01-29T08:10:57.378Z,276
2017-01-29T08:11:22.952Z,272
2017-01-29T08:11:48.566Z,276
2017-01-29T08:12:14.129Z,272
2017-01-29T08:12:39.692Z,276
2017-01-29T08:13:05.522Z,280
2017-01-29T08:13:31.130Z,284
2017-01-29T08:13:56.669Z,288
2017-01-29T08:14:22.247Z,292
2017-01-29T08:14:47.885Z,296
2017-01-29T08:15:13.451Z,296
2017-01-29T08:15:39.074Z,300
2017-01-29T08:16:04.673Z,304
2017-01-29T08:16:30.237Z,304
2017-01-29T08:16:55.803Z,308
2017-01-29T08:17:21.373Z,308
2017-01-29T08:17:47.026Z,312
2017-01-29T08:18:12.625Z,316
2017-01-29T08:18:38.184Z,316
2017-01-29T08:19:03.752Z,316
2017-01-29T08:19:29.328Z,320
2017-01-29T08:19:54.886Z,320
2017-01-29T08:20:20.449Z,320
2017-01-29T08:20:46.025Z,316
2017-01-29T08:21:11.603Z,316
2017-01-29T08:21:37.166Z,316
2017-01-29T08:22:02.728Z,312
2017-01-29T08:22:28.286Z,316
2017-01-29T08:22:53.936Z,316
2017-01-29T08:23:19.515Z,316
2017-01-29T08:23:45.070Z,320
2017-01-29T08:24:10.843Z,328
2017-01-29T08:24:36.422Z,328
2017-01-29T08:25:01.982Z,332
2017-01-29T08:25:27.521Z,340
2017-01-29T08:25:53.153Z,340
2017-01-29T08:26:18.746Z,344
2017-01-29T08:26:44.359Z,348
2017-01-29T08:27:10.011Z,352
2017-01-29T08:27:35.593Z,352
2017-01-29T08:28:01.180Z,352
2017-01-29T08:28:26.765Z,348
2017-01-29T08:28:52.343Z,336
2017-01-29T08:29:17.916Z,324
2017-01-29T08:29:43.494Z,320
2017-01-29T08:30:09.159Z,312
2017-01-29T08:30:34.742Z,312
2017-01-29T08:31:00.313Z,312
2017-01-29T08:31:25.907Z,316
2017-01-29T08:31:51.551Z,320
2017-01-29T08:32:17.126Z,328
2017-01-29T08:32:42.697Z,336
2017-01-29T08:33:08.285Z,344
2017-01-29T08:33:33.850Z,348
2017-01-29T08:33:59.429Z,352
2017-01-29T08:34:25.076Z,364
2017-01-29T08:34:50.833Z,364
2017-01-29T08:35:16.433Z,368
2017-01-29T08:35:42.048Z,372
2017-01-29T08:36:07.644Z,380
2017-01-29T08:36:33.195Z,380
2017-01-29T08:36:58.824Z,384
2017-01-29T08:37:24.399Z,380
2017-01-29T08:37:49.996Z,384
2017-01-29T08:38:15.614Z,388
2017-01-29T08:38:41.253Z,388
2017-01-29T08:39:06.831Z,384
2017-01-29T08:39:32.402Z,388
2017-01-29T08:39:58.006Z,388
2017-01-29T08:40:23.597Z,384
2017-01-29T08:40:49.220Z,392
2017-01-29T08:41:14.764Z,392
2017-01-29T08:41:40.524Z,392
2017-01-29T08:42:06.094Z,392
2017-01-29T08:42:31.679Z,388
2017-01-29T08:42:57.242Z,392
2017-01-29T08:43:22.839Z,396
2017-01-29T08:43:48.413Z,396
2017-01-29T08:44:14.005Z,396
2017-01-29T08:44:39.635Z,400
2017-01-29T08:45:05.204Z,404
2017-01-29T08:45:30.796Z,408
2017-01-29T08:45:56.461Z,420
2017-01-29T08:46:22.029Z,424
2017-01-29T08:46:47.610Z,436
2017-01-29T08:47:13.256Z,448
2017-01-29T08:47:38.808Z,456
2017-01-29T08:48:04.373Z,468
2017-01-29T08:48:29.994Z,476
2017-01-29T08:48:55.581Z,484
2017-01-29T08:49:21.211Z,488
2017-01-29T08:49:46.846Z,496
2017-01-29T08:50:12.438Z,492
2017-01-29T08:50:38.004Z,496
2017-01-29T08:51:03.577Z,492
2017-01-29T08:51:29.153Z,488
2017-01-29T08:51:54.726Z,484
2017-01-29T08:52:20.323Z,476
2017-01-29T08:52:45.905Z,468
2017-01-29T08:53:11.597Z,460
2017-01-29T08:53:37.160Z,456
2017-01-29T08:54:02.751Z,448
2017-01-29T08:54:28.326Z,448
2017-01-29T08:54:53.921Z,448
2017-01-29T08:55:19.506Z,452
2017-01-29T08:55:45.102Z,452
2017-01-29T08:56:10.667Z,456
2017-01-29T08:56:36.417Z,460
2017-01-29T08:57:02.008Z,464
2017-01-29T08:57:27.595Z,472
2017-01-29T08:57:53.168Z,484
2017-01-29T08:58:18.743Z,488
2017-01-29T08:58:44.325Z,492
2017-01-29T08:59:09.940Z,492
2017-01-29T08:59:35.607Z,492
2017-01-29T09:00:01.304Z,484
2017-01-29T09:00:26.880Z,480
2017-01-29T09:00:52.455Z,472
2017-01-29T09:01:18.102Z,464
2017-01-29T09:01:43.681Z,456
2017-01-29T09:02:09.241Z,448
2017-01-29T09:02:34.894Z,440
2017-01-29T09:03:00.542Z,440
2017-01-29T09:03:26.122Z,440
2017-01-29T09:03:51.919Z,444
2017-01-29T09:04:17.468Z,452
2017-01-29T09:04:43.039Z,460
2017-01-29T09:05:08.718Z,468
2017-01-29T09:05:34.310Z,480
2017-01-29T09:05:59.910Z,484
2017-01-29T09:06:25.517Z,492
2017-01-29T09:06:51.156Z,496
2017-01-29T09:07:16.946Z,500
2017-01-29T09:07:42.529Z,500
2017-01-29T09:08:08.221Z,496
2017-01-29T09:08:33.809Z,496
2017-01-29T09:08:59.373Z,496
2017-01-29T09:09:25.017Z,504
2017-01-29T09:09:50.601Z,512
2017-01-29T09:10:16.229Z,528
2017-01-29T09:10:41.929Z,536
2017-01-29T09:11:07.559Z,548
2017-01-29T09:11:33.153Z,552
2017-01-29T09:11:58.726Z,556
2017-01-29T09:12:24.292Z,556
2017-01-29T09:12:49.908Z,564
2017-01-29T09:13:15.469Z,568
2017-01-29T09:13:41.049Z,568
2017-01-29T09:14:06.636Z,572
2017-01-29T09:14:32.396Z,572
2017-01-29T09:15:46.382Z,572
2017-01-29T09:16:11.980Z,568
2017-01-29T09:16:37.552Z,568
2017-01-29T09:17:03.107Z,572
2017-01-29T09:17:28.662Z,568
2017-01-29T09:18:47.300Z,572
2017-01-29T09:19:12.852Z,580
2017-01-29T09:19:38.428Z,580
2017-01-29T09:20:04.078Z,588
2017-01-29T09:20:29.709Z,596
2017-01-29T09:20:55.271Z,608
2017-01-29T09:21:20.852Z,608
2017-01-29T09:21:46.489Z,612
2017-01-29T09:22:12.066Z,616
2017-01-29T09:22:37.622Z,624
2017-01-29T09:23:03.228Z,628
2017-01-29T09:23:28.861Z,636
2017-01-29T09:23:54.422Z,632
2017-01-29T09:24:20.009Z,636
2017-01-29T09:24:46.427Z,640
2017-01-29T09:25:12.215Z,648
2017-01-29T09:25:37.809Z,652
2017-01-29T09:26:03.363Z,652
2017-01-29T09:26:29.064Z,656
2017-01-29T09:26:54.661Z,664
2017-01-29T09:27:20.216Z,668
2017-01-29T09:27:45.807Z,676
2017-01-29T09:28:11.374Z,672
2017-01-29T09:28:36.925Z,684
2017-01-29T09:29:02.597Z,684
2017-01-29T09:29:28.166Z,688
2017-01-29T09:29:53.712Z,692
2017-01-29T09:30:19.265Z,696
2017-01-29T09:30:44.819Z,700
2017-01-29T09:31:10.381Z,712
2017-01-29T09:31:36.009Z,716
2017-01-29T09:32:01.724Z,728
2017-01-29T09:32:27.273Z,736
2017-01-29T09:32:52.824Z,748
2017-01-29T09:33:18.439Z,756
2017-01-29T09:33:44.082Z,768
2017-01-29T09:34:09.647Z,784
2017-01-29T09:34:35.202Z,796
2017-01-29T09:35:00.778Z,808
2017-01-29T09:35:26.331Z,828
2017-01-29T09:35:51.932Z,836
2017-01-29T09:36:17.497Z,852
2017-01-29T09:36:43.132Z,864
2017-01-29T09:37:08.713Z,872
2017-01-29T09:37:34.406Z,876
2017-01-29T09:37:59.990Z,876
2017-01-29T09:38:25.549Z,868
2017-01-29T09:38:51.123Z,880
2017-01-29T09:39:16.737Z,892
2017-01-29T09:39:42.324Z,900
2017-01-29T09:40:07.947Z,924
2017-01-29T09:40:33.519Z,944
2017-01-29T09:40:59.104Z,964
2017-01-29T09:42:07.750Z,976
2017-01-29T09:42:33.341Z,980
2017-01-29T09:42:59.019Z,972
2017-01-29T09:43:24.593Z,964
2017-01-29T09:43:50.170Z,952
2017-01-29T09:44:15.744Z,948
2017-01-29T09:44:41.356Z,948
2017-01-29T09:45:06.918Z,940
2017-01-29T09:45:32.494Z,928
2017-01-29T09:45:58.200Z,928
2017-01-29T09:46:23.795Z,924
2017-01-29T09:46:49.334Z,924
2017-01-29T09:47:15.009Z,928
2017-01-29T09:47:40.587Z,936
2017-01-29T09:48:06.154Z,952
2017-01-29T09:48:31.803Z,956
2017-01-29T09:48:57.407Z,964
2017-01-29T09:49:22.972Z,968
2017-01-29T09:49:48.544Z,968
2017-01-29T09:50:14.178Z,960
2017-01-29T09:50:39.766Z,956
2017-01-29T09:51:05.336Z,952
2017-01-29T09:51:30.895Z,948
2017-01-29T09:51:56.451Z,948
2017-01-29T09:52:22.018Z,952
2017-01-29T09:52:47.575Z,956
2017-01-29T09:53:13.133Z,952
2017-01-29T09:54:16.632Z,940
2017-01-29T09:54:42.209Z,932
2017-01-29T09:58:01.187Z,924
2017-01-29T09:58:26.793Z,920
2017-01-29T09:58:54.584Z,908
2017-01-29T09:59:20.065Z,896
2017-01-29T09:59:45.763Z,880
2017-01-29T10:00:11.336Z,872
2017-01-29T10:00:36.915Z,860
2017-01-29T10:01:02.492Z,856
2017-01-29T10:01:28.077Z,848
2017-01-29T10:01:53.634Z,840
2017-01-29T10:02:19.185Z,820
2017-01-29T10:02:44.756Z,804
2017-01-29T10:03:10.329Z,784
2017-01-29T10:03:35.907Z,772
2017-01-29T10:04:01.461Z,764
2017-01-29T10:04:27.019Z,756
2017-01-29T10:04:52.602Z,744
2017-01-29T10:05:18.204Z,732
2017-01-29T10:05:43.785Z,720
2017-01-29T10:06:09.350Z,708
2017-01-29T10:06:34.930Z,700
2017-01-29T10:07:00.493Z,684
2017-01-29T10:07:26.080Z,672
2017-01-29T10:07:51.638Z,656
2017-01-29T10:08:17.201Z,640
2017-01-29T10:08:42.783Z,628
2017-01-29T10:09:08.511Z,620
2017-01-29T10:09:34.086Z,616
2017-01-29T10:09:59.663Z,612
2017-01-29T10:10:25.211Z,616
2017-01-29T10:10:50.783Z,612
2017-01-29T10:11:16.357Z,604
2017-01-29T10:11:41.914Z,608
2017-01-29T10:12:07.586Z,628
2017-01-29T10:12:33.165Z,640
2017-01-29T10:12:58.767Z,644
2017-01-29T10:13:24.336Z,640
2017-01-29T10:13:49.909Z,624
2017-01-29T10:14:15.486Z,588
2017-01-29T10:14:41.069Z,556
2017-01-29T10:15:06.660Z,524
2017-01-29T10:15:32.240Z,512
2017-01-29T10:15:57.856Z,504
2017-01-29T10:16:23.438Z,476
2017-01-29T10:16:49.095Z,480
2017-01-29T10:17:14.734Z,504
2017-01-29T10:17:40.295Z,516
2017-01-29T10:18:05.855Z,468
2017-01-29T10:18:31.494Z,424
2017-01-29T10:18:57.063Z,400
2017-01-29T10:19:22.641Z,364
2017-01-29T10:19:48.310Z,356
2017-01-29T10:20:13.901Z,332
2017-01-29T10:20:39.472Z,360
2017-01-29T10:21:05.049Z,408
2017-01-29T10:21:30.692Z,444
2017-01-29T10:21:56.260Z,488
2017-01-29T10:22:21.845Z,516
2017-01-29T10:22:47.514Z,556
2017-01-29T10:23:13.088Z,600
2017-01-29T10:23:38.689Z,640
2017-01-29T10:24:04.338Z,664
2017-01-29T10:24:29.890Z,672
2017-01-29T10:24:55.473Z,692
2017-01-29T10:25:21.044Z,716
2017-01-29T10:25:46.681Z,752
2017-01-29T10:26:12.261Z,792
2017-01-29T10:26:37.828Z,816
2017-01-29T10:27:03.502Z,832
2017-01-29T10:27:29.061Z,840
2017-01-29T10:27:54.726Z,828
2017-01-29T10:28:20.294Z,800
2017-01-29T10:28:45.926Z,764
2017-01-29T10:29:11.507Z,764
2017-01-29T10:29:37.093Z,784
2017-01-29T10:30:02.754Z,784
2017-01-29T10:30:28.522Z,780
2017-01-29T10:30:54.201Z,788
2017-01-29T10:31:19.841Z,804
2017-01-29T10:31:45.419Z,828
2017-01-29T10:32:11.004Z,848
2017-01-29T10:32:36.575Z,872
2017-01-29T10:33:02.236Z,896
2017-01-29T10:33:27.814Z,928
2017-01-29T10:33:53.380Z,948
2017-01-29T10:34:19.035Z,960
2017-01-29T10:34:44.599Z,984
2017-01-29T10:35:10.162Z,1000
2017-01-29T10:35:36.380Z,1000
2017-01-29T10:36:01.936Z,976
2017-01-29T10:36:27.497Z,944
2017-01-29T10:36:53.061Z,876
2017-01-29T10:37:18.719Z,832
2017-01-29T10:37:44.295Z,796
2017-01-29T10:38:09.908Z,780
2017-01-29T10:38:35.524Z,744
2017-01-29T10:39:01.101Z,708
2017-01-29T10:39:26.692Z,676
2017-01-29T10:39:52.299Z,656
2017-01-29T10:41:06.041Z,636
2017-01-29T10:41:31.633Z,628
2017-01-29T10:41:57.207Z,624
2017-01-29T10:42:23.317Z,620
2017-01-29T10:42:48.868Z,608
2017-01-29T10:43:14.430Z,564
2017-01-29T10:43:40.028Z,472
2017-01-29T10:44:05.609Z,392
2017-01-29T10:44:31.162Z,332
2017-01-29T10:44:56.747Z,292
2017-01-29T10:45:22.329Z,276
2017-01-29T10:45:47.900Z,260
2017-01-29T10:46:13.456Z,236
2017-01-29T10:46:39.032Z,216
2017-01-29T10:47:04.651Z,200
2017-01-29T10:47:30.212Z,200
2017-01-29T10:47:55.787Z,204
2017-01-29T10:48:21.342Z,208
2017-01-29T10:48:46.920Z,220
2017-01-29T10:49:12.562Z,220
2017-01-29T10:49:38.127Z,240
2017-01-29T10:50:03.771Z,240
2017-01-29T10:50:29.421Z,256
2017-01-29T10:50:55.012Z,284
2017-01-29T10:51:20.590Z,308
2017-01-29T10:51:46.233Z,324
2017-01-29T10:53:00.042Z,356
2017-01-29T10:53:25.607Z,368
2017-01-29T10:53:51.212Z,376
2017-01-29T10:54:16.783Z,376
2017-01-29T10:54:42.339Z,364
2017-01-29T10:55:07.900Z,344
2017-01-29T10:55:33.509Z,336
2017-01-29T10:55:59.292Z,336
2017-01-29T10:56:24.932Z,324
2017-01-29T10:56:50.493Z,324
2017-01-29T10:57:16.066Z,328
2017-01-29T10:57:41.622Z,332
2017-01-29T10:58:07.307Z,340
2017-01-29T10:58:32.867Z,356
2017-01-29T10:58:58.421Z,368
2017-01-29T10:59:24.141Z,364
2017-01-29T10:59:49.696Z,376
2017-01-29T11:00:15.257Z,388
2017-01-29T11:00:40.851Z,396
2017-01-29T11:01:06.463Z,384
2017-01-29T11:01:32.018Z,368
2017-01-29T11:01:57.632Z,356
2017-01-29T11:02:23.206Z,356
2017-01-29T11:02:48.794Z,352
2017-01-29T11:03:14.359Z,348
2017-01-29T11:03:39.921Z,348
2017-01-29T11:04:05.497Z,360
2017-01-29T11:04:31.125Z,376
2017-01-29T11:04:56.739Z,396
2017-01-29T11:05:22.318Z,416
2017-01-29T11:05:47.960Z,428
2017-01-29T11:06:13.541Z,448
2017-01-29T11:06:39.380Z,464
2017-01-29T11:07:04.962Z,480
2017-01-29T11:07:30.544Z,504
2017-01-29T11:07:56.170Z,524
2017-01-29T11:08:21.742Z,552
2017-01-29T11:08:47.331Z,588
2017-01-29T11:09:12.901Z,644
2017-01-29T11:09:38.598Z,704
2017-01-29T11:10:04.236Z,748
2017-01-29T11:10:29.832Z,772
2017-01-29T11:10:55.426Z,772
2017-01-29T11:11:20.998Z,756
2017-01-29T11:11:46.607Z,736